HBA weather

Hobart International Airport
Hobart, Tasmania, Australia

Public forecast

Using degrees Celsius for public forecast. Weather courtesy of forecast.io.

METAR (pilot weather report)

Retrieved 2018/07/18 00:30 UTC (0 seconds ago):

YMHB 180030Z 33008KT 9999 FEW038 BKN250 10/02 Q1004 RF00.0/000.0

TAF (pilot weather forecast)

Retrieved 2018/07/17 18:36 UTC (6 hours ago):

TAF YMHB 171729Z 1718/1818 35008KT 9999 SCT035 FM172100 35012KT 9999 SCT035 FM180300 34015G25KT 9999 SCT035 FM180300 33015G25KT 9999 -SHRA SCT025 BKN040